createdAt,value
2018-12-16T00:03:34.449Z,99887.47
2018-12-16T00:06:39.033Z,99883.45
2018-12-16T00:09:44.127Z,99889.41
2018-12-16T00:12:48.715Z,99886.58
2018-12-16T00:15:53.429Z,99886.31
2018-12-16T00:18:58.046Z,99865.66
2018-12-16T00:22:02.678Z,99860.23
2018-12-16T00:25:08.534Z,99854.91
2018-12-16T00:28:13.185Z,99854.08
2018-12-16T00:31:17.897Z,99853.59
2018-12-16T00:34:22.719Z,99851.14
2018-12-16T00:37:27.894Z,99836.66
2018-12-16T00:40:32.527Z,99839.25
2018-12-16T00:43:37.116Z,99842.50
2018-12-16T00:46:41.722Z,99844.27
2018-12-16T00:49:46.411Z,99834.84
2018-12-16T00:52:51.037Z,99838.29
2018-12-16T00:55:55.625Z,99832.22
2018-12-16T00:59:00.124Z,99825.87
2018-12-16T01:02:07.156Z,99826.85
2018-12-16T01:05:12.297Z,99820.44
2018-12-16T01:08:16.923Z,99818.02
2018-12-16T01:11:21.461Z,99807.09
2018-12-16T01:14:26.183Z,99807.70
2018-12-16T01:17:30.767Z,99799.62
2018-12-16T01:20:35.438Z,99813.98
2018-12-16T01:23:40.003Z,99819.86
2018-12-16T01:26:44.586Z,99822.55
2018-12-16T01:29:49.254Z,99822.55
2018-12-16T01:32:53.849Z,99823.55
2018-12-16T01:35:58.825Z,99822.81
2018-12-16T01:39:03.735Z,99823.06
2018-12-16T01:42:08.413Z,99828.56
2018-12-16T01:45:12.992Z,99815.80
2018-12-16T01:48:17.565Z,99815.36
2018-12-16T01:51:22.142Z,99809.24
2018-12-16T01:54:26.686Z,99817.16
2018-12-16T01:57:31.242Z,99820.56
2018-12-16T02:00:35.855Z,99813.32
2018-12-16T02:03:40.538Z,99817.34
2018-12-16T02:06:45.317Z,99807.70
2018-12-16T02:09:50.029Z,99804.89
2018-12-16T02:12:54.628Z,99807.21
2018-12-16T02:15:59.605Z,99794.34
2018-12-16T02:19:04.822Z,99786.08
2018-12-16T02:22:09.480Z,99783.64
2018-12-16T02:25:14.141Z,99776.27
2018-12-16T02:28:18.852Z,99773.34
2018-12-16T02:31:23.336Z,99778.36
2018-12-16T02:34:27.932Z,99770.28
2018-12-16T02:37:32.891Z,99759.38
2018-12-16T02:40:37.474Z,99749.45
2018-12-16T02:43:42.294Z,99738.39
2018-12-16T02:46:46.902Z,99734.70
2018-12-16T02:49:51.567Z,99726.41
2018-12-16T02:53:04.294Z,99716.61
2018-12-16T02:56:03.488Z,99709.88
2018-12-16T02:59:10.876Z,99707.30
2018-12-16T03:02:15.499Z,99698.20
2018-12-16T03:05:20.200Z,99698.00
2018-12-16T03:08:24.746Z,99683.38
2018-12-16T03:11:29.330Z,99683.52
2018-12-16T03:14:34.861Z,99666.34
2018-12-16T03:17:39.564Z,99661.00
2018-12-16T03:20:44.244Z,99653.15
2018-12-16T03:23:48.914Z,99646.05
2018-12-16T03:26:54.608Z,99629.44
2018-12-16T03:29:59.217Z,99633.45
2018-12-16T03:33:04.979Z,99624.23
2018-12-16T03:36:09.861Z,99631.23
2018-12-16T03:39:14.454Z,99630.55
2018-12-16T03:42:19.065Z,99639.72
2018-12-16T03:45:23.592Z,99634.30
2018-12-16T03:48:28.136Z,99629.31
2018-12-16T03:51:32.645Z,99613.37
2018-12-16T03:54:37.333Z,99603.48
2018-12-16T03:57:41.959Z,99589.86
2018-12-16T04:00:46.563Z,99573.67
2018-12-16T04:03:51.257Z,99572.97
2018-12-16T04:06:56.373Z,99566.70
2018-12-16T04:10:00.962Z,99560.67
2018-12-16T04:13:05.525Z,99564.71
2018-12-16T04:16:10.140Z,99562.81
2018-12-16T04:19:14.767Z,99545.64
2018-12-16T04:22:19.454Z,99536.48
2018-12-16T04:25:24.098Z,99528.52
2018-12-16T04:28:28.948Z,99521.45
2018-12-16T04:31:33.597Z,99517.95
2018-12-16T04:34:38.099Z,99530.28
2018-12-16T04:37:42.749Z,99534.70
2018-12-16T04:40:47.380Z,99545.03
2018-12-16T04:43:51.874Z,99543.62
2018-12-16T04:46:56.485Z,99536.10
2018-12-16T04:50:01.184Z,99523.70
2018-12-16T04:53:05.731Z,99521.61
2018-12-16T04:56:10.303Z,99509.05
2018-12-16T04:59:14.943Z,99514.05
2018-12-16T05:02:19.562Z,99514.89
2018-12-16T05:05:24.138Z,99508.38
2018-12-16T05:08:28.866Z,99507.88
2018-12-16T05:14:47.801Z,99525.69
2018-12-16T05:17:52.462Z,99524.68
2018-12-16T05:20:57.153Z,99533.47
2018-12-16T05:24:01.773Z,99531.54
2018-12-16T05:27:06.355Z,99531.78
2018-12-16T05:33:25.650Z,99522.94
2018-12-16T05:36:30.284Z,99522.23
2018-12-16T05:39:34.993Z,99521.02
2018-12-16T05:42:39.620Z,99510.91
2018-12-16T05:45:44.250Z,99503.44
2018-12-16T05:48:48.910Z,99497.09
2018-12-16T05:51:53.462Z,99494.58
2018-12-16T05:54:58.103Z,99480.70
2018-12-16T05:58:02.704Z,99477.20
2018-12-16T06:01:07.584Z,99468.51
2018-12-16T06:04:12.253Z,99470.06
2018-12-16T06:07:17.016Z,99469.47
2018-12-16T06:10:21.638Z,99474.75
2018-12-16T06:13:26.298Z,99468.23
2018-12-16T06:16:30.997Z,99469.09
2018-12-16T06:19:35.528Z,99464.24
2018-12-16T06:22:40.233Z,99443.13
2018-12-16T06:25:44.853Z,99442.06
2018-12-16T06:28:49.513Z,99461.34
2018-12-16T06:31:55.300Z,99461.92
2018-12-16T06:35:00.297Z,99453.69
2018-12-16T06:38:05.784Z,99448.80
2018-12-16T06:41:10.400Z,99440.28
2018-12-16T06:44:15.088Z,99443.67
2018-12-16T06:47:19.715Z,99450.42
2018-12-16T06:50:24.253Z,99445.30
2018-12-16T06:53:28.925Z,99437.50
2018-12-16T06:56:33.515Z,99445.83
2018-12-16T06:59:38.114Z,99432.25
2018-12-16T07:02:42.912Z,99427.12
2018-12-16T07:05:48.236Z,99422.27
2018-12-16T07:08:52.939Z,99418.45
2018-12-16T07:11:57.580Z,99414.87
2018-12-16T07:15:02.395Z,99411.64
2018-12-16T07:18:07.237Z,99409.11
2018-12-16T07:21:11.704Z,99411.45
2018-12-16T07:24:16.313Z,99414.13
2018-12-16T07:27:21.010Z,99420.20
2018-12-16T07:30:27.597Z,99415.50
2018-12-16T07:33:32.311Z,99419.19
2018-12-16T07:36:37.654Z,99423.13
2018-12-16T07:39:43.919Z,99403.32
2018-12-16T07:42:48.716Z,99409.94
2018-12-16T07:45:53.279Z,99416.49
2018-12-16T07:48:58.122Z,99412.55
2018-12-16T07:52:02.969Z,99426.36
2018-12-16T07:55:09.165Z,99431.67
2018-12-16T07:58:13.908Z,99423.32
2018-12-16T08:04:33.195Z,99418.62
2018-12-16T08:07:37.904Z,99418.45
2018-12-16T08:10:42.575Z,99416.93
2018-12-16T08:13:47.982Z,99419.58
2018-12-16T08:16:52.592Z,99430.23
2018-12-16T08:19:57.338Z,99430.77
2018-12-16T08:23:01.981Z,99429.85
2018-12-16T08:26:07.133Z,99428.97
2018-12-16T08:29:11.687Z,99439.44
2018-12-16T08:32:16.398Z,99446.66
2018-12-16T08:35:20.986Z,99452.53
2018-12-16T08:38:25.722Z,99461.69
2018-12-16T08:41:30.456Z,99462.29
2018-12-16T08:44:35.007Z,99469.75
2018-12-16T08:47:39.603Z,99472.96
2018-12-16T08:50:44.302Z,99472.75
2018-12-16T08:53:48.941Z,99475.84
2018-12-16T08:56:53.624Z,99481.84
2018-12-16T08:59:58.268Z,99480.59
2018-12-16T09:03:03.364Z,99482.45
2018-12-16T09:06:08.001Z,99479.51
2018-12-16T09:09:12.918Z,99480.70
2018-12-16T09:12:17.445Z,99480.04
2018-12-16T09:15:22.105Z,99478.81
2018-12-16T09:18:26.630Z,99468.11
2018-12-16T09:21:31.316Z,99461.16
2018-12-16T09:24:37.386Z,99452.25
2018-12-16T09:27:42.293Z,99457.11
2018-12-16T09:30:57.702Z,99459.03
2018-12-16T09:33:57.315Z,99469.45
2018-12-16T09:37:02.168Z,99462.75
2018-12-16T09:40:07.890Z,99462.77
2018-12-16T09:43:12.698Z,99461.59
2018-12-16T09:46:17.414Z,99457.41
2018-12-16T09:49:22.133Z,99456.45
2018-12-16T09:52:26.798Z,99455.83
2018-12-16T09:55:31.513Z,99457.51
2018-12-16T09:58:36.108Z,99471.06
2018-12-16T10:01:40.796Z,99466.92
2018-12-16T10:04:45.445Z,99474.06
2018-12-16T10:11:04.123Z,99455.73
2018-12-16T10:14:08.817Z,99451.64
2018-12-16T10:17:13.522Z,99456.36
2018-12-16T10:20:18.286Z,99452.08
2018-12-16T10:23:22.942Z,99452.80
2018-12-16T10:26:27.705Z,99441.06
2018-12-16T10:29:32.370Z,99437.03
2018-12-16T10:32:36.931Z,99445.17
2018-12-16T10:35:41.777Z,99436.82
2018-12-16T10:38:46.451Z,99431.59
2018-12-16T10:41:51.255Z,99434.98
2018-12-16T10:44:55.881Z,99433.11
2018-12-16T10:48:00.604Z,99425.92
2018-12-16T10:51:05.331Z,99440.87
2018-12-16T10:54:10.017Z,99431.34
2018-12-16T10:57:14.636Z,99434.72
2018-12-16T11:00:24.369Z,99425.84
2018-12-16T11:03:28.911Z,99424.47
2018-12-16T11:06:33.534Z,99419.72
2018-12-16T11:09:38.182Z,99411.77
2018-12-16T11:12:43.263Z,99400.91
2018-12-16T11:15:48.649Z,99401.47
2018-12-16T11:18:53.159Z,99403.91
2018-12-16T11:21:57.713Z,99397.72
2018-12-16T11:25:05.566Z,99399.41
2018-12-16T11:28:08.785Z,99397.05
2018-12-16T11:34:28.091Z,99404.52
2018-12-16T11:37:32.728Z,99399.52
2018-12-16T11:40:37.289Z,99402.69
2018-12-16T11:43:41.860Z,99401.34
2018-12-16T11:46:46.467Z,99403.50
2018-12-16T11:49:50.981Z,99396.18
2018-12-16T11:52:55.482Z,99395.05
2018-12-16T11:56:00.577Z,99400.46
2018-12-16T11:59:05.268Z,99399.55
2018-12-16T12:02:09.920Z,99399.02
2018-12-16T12:05:14.445Z,99392.95
2018-12-16T12:08:18.971Z,99391.98
2018-12-16T12:11:23.599Z,99392.13
2018-12-16T12:14:28.158Z,99398.40
2018-12-16T12:17:32.738Z,99398.40
2018-12-16T12:20:37.289Z,99395.42
2018-12-16T12:23:42.180Z,99396.19
2018-12-16T12:26:46.937Z,99390.87
2018-12-16T12:29:51.482Z,99398.88
2018-12-16T12:32:56.113Z,99396.36
2018-12-16T12:36:00.933Z,99404.88
2018-12-16T12:39:07.650Z,99410.72
2018-12-16T12:42:12.125Z,99405.09
2018-12-16T12:45:16.799Z,99405.03
2018-12-16T12:48:21.715Z,99395.09
2018-12-16T12:51:26.279Z,99397.01
2018-12-16T12:54:30.881Z,99392.06
2018-12-16T12:57:35.553Z,99393.45
2018-12-16T13:00:40.242Z,99405.17
2018-12-16T13:03:44.934Z,99406.03
2018-12-16T13:06:49.540Z,99409.61
2018-12-16T13:09:54.259Z,99394.56
2018-12-16T13:12:59.074Z,99387.12
2018-12-16T13:16:03.766Z,99386.94
2018-12-16T13:19:08.350Z,99398.22
2018-12-16T13:22:12.948Z,99389.44
2018-12-16T13:25:35.723Z,99386.94
2018-12-16T13:28:40.464Z,99380.38
2018-12-16T13:31:45.170Z,99385.61
2018-12-16T13:34:49.843Z,99393.34
2018-12-16T13:37:54.462Z,99382.03
2018-12-16T13:40:59.169Z,99395.18
2018-12-16T13:44:03.974Z,99390.87
2018-12-16T13:47:08.689Z,99399.97
2018-12-16T13:50:13.410Z,99402.31
2018-12-16T13:53:17.959Z,99395.75
2018-12-16T13:56:22.642Z,99400.66
2018-12-16T13:59:27.185Z,99400.25
2018-12-16T14:02:31.915Z,99413.01
2018-12-16T14:05:36.658Z,99420.50
2018-12-16T14:08:41.355Z,99418.03
2018-12-16T14:11:46.084Z,99402.77
2018-12-16T14:14:50.738Z,99419.77
2018-12-16T14:17:55.322Z,99418.12
2018-12-16T14:20:59.951Z,99415.43
2018-12-16T14:24:04.677Z,99414.00
2018-12-16T14:27:09.368Z,99414.37
2018-12-16T14:30:14.282Z,99423.69
2018-12-16T14:33:19.015Z,99416.93
2018-12-16T14:36:23.614Z,99431.33
2018-12-16T14:39:31.010Z,99422.31
2018-12-16T14:42:35.577Z,99424.55
2018-12-16T14:45:40.276Z,99433.23
2018-12-16T14:48:45.044Z,99430.22
2018-12-16T14:51:49.588Z,99435.08
2018-12-16T14:54:54.566Z,99426.30
2018-12-16T14:57:59.209Z,99420.63
2018-12-16T15:01:03.894Z,99427.73
2018-12-16T15:04:08.518Z,99434.92
2018-12-16T15:07:13.274Z,99434.10
2018-12-16T15:10:17.931Z,99442.46
2018-12-16T15:13:22.882Z,99447.76
2018-12-16T15:16:27.576Z,99445.61
2018-12-16T15:19:32.444Z,99455.62
2018-12-16T15:22:37.246Z,99455.30
2018-12-16T15:25:41.895Z,99452.73
2018-12-16T15:28:46.573Z,99458.08
2018-12-16T15:31:51.188Z,99466.16
2018-12-16T15:34:55.913Z,99469.63
2018-12-16T15:38:00.731Z,99467.44
2018-12-16T15:41:05.690Z,99479.91
2018-12-16T15:44:10.461Z,99483.70
2018-12-16T15:47:15.218Z,99489.56
2018-12-16T15:50:19.790Z,99501.22
2018-12-16T15:53:24.500Z,99505.80
2018-12-16T15:56:29.790Z,99498.63
2018-12-16T15:59:34.386Z,99498.71
2018-12-16T16:02:39.165Z,99494.72
2018-12-16T16:05:44.166Z,99491.88
2018-12-16T16:08:49.717Z,99490.56
2018-12-16T16:11:54.499Z,99486.11
2018-12-16T16:14:59.202Z,99486.23
2018-12-16T16:18:03.945Z,99485.90
2018-12-16T16:21:08.446Z,99486.11
2018-12-16T16:24:13.175Z,99488.48
2018-12-16T16:27:17.934Z,99501.53
2018-12-16T16:30:22.573Z,99502.23
2018-12-16T16:33:27.385Z,99503.70
2018-12-16T16:36:32.257Z,99506.89
2018-12-16T16:39:36.763Z,99511.64
2018-12-16T16:42:41.381Z,99511.44
2018-12-16T16:45:46.263Z,99520.72
2018-12-16T16:48:51.245Z,99523.63
2018-12-16T16:51:56.353Z,99521.28
2018-12-16T16:55:01.117Z,99528.79
2018-12-16T16:58:05.773Z,99532.30
2018-12-16T17:01:10.407Z,99532.45
2018-12-16T17:04:15.023Z,99534.78
2018-12-16T17:07:19.712Z,99526.84
2018-12-16T17:13:44.116Z,99534.59
2018-12-16T17:16:48.869Z,99536.87
2018-12-16T17:19:53.694Z,99541.28
2018-12-16T17:22:58.351Z,99542.30
2018-12-16T17:26:03.255Z,99534.97
2018-12-16T17:29:07.963Z,99548.21
2018-12-16T17:32:12.579Z,99553.53
2018-12-16T17:35:17.239Z,99557.24
2018-12-16T17:38:21.945Z,99552.70
2018-12-16T17:41:26.688Z,99560.22
2018-12-16T17:44:31.489Z,99576.13
2018-12-16T17:47:36.391Z,99576.92
2018-12-16T17:50:41.245Z,99573.38
2018-12-16T17:53:45.899Z,99570.75
2018-12-16T17:56:50.663Z,99568.48
2018-12-16T17:59:55.602Z,99567.78
2018-12-16T18:03:00.454Z,99577.55
2018-12-16T18:06:05.089Z,99584.31
2018-12-16T18:09:10.920Z,99588.14
2018-12-16T18:12:15.659Z,99583.24
2018-12-16T18:15:20.628Z,99577.05
2018-12-16T18:18:25.402Z,99574.53
2018-12-16T18:21:30.241Z,99573.41
2018-12-16T18:24:34.790Z,99565.83
2018-12-16T18:27:39.527Z,99567.16
2018-12-16T18:30:44.245Z,99575.41
2018-12-16T18:33:48.876Z,99585.14
2018-12-16T18:36:53.451Z,99582.75
2018-12-16T18:39:58.335Z,99587.67
2018-12-16T18:43:03.060Z,99593.58
2018-12-16T18:46:08.076Z,99586.70
2018-12-16T18:49:12.883Z,99593.52
2018-12-16T18:52:17.584Z,99594.58
2018-12-16T18:55:22.289Z,99582.41
2018-12-16T18:58:26.863Z,99586.91
2018-12-16T19:01:31.534Z,99594.99
2018-12-16T19:04:36.263Z,99585.96
2018-12-16T19:07:41.158Z,99583.83
2018-12-16T19:10:45.811Z,99591.78
2018-12-16T19:13:50.730Z,99583.64
2018-12-16T19:16:55.485Z,99582.98
2018-12-16T19:20:00.052Z,99589.77
2018-12-16T19:23:04.713Z,99589.77
2018-12-16T19:26:09.313Z,99597.78
2018-12-16T19:29:13.898Z,99596.89
2018-12-16T19:32:18.563Z,99600.16
2018-12-16T19:35:23.299Z,99603.06
2018-12-16T19:38:27.939Z,99602.07
2018-12-16T19:41:32.484Z,99601.61
2018-12-16T19:44:37.008Z,99595.20
2018-12-16T19:47:41.629Z,99603.09
2018-12-16T19:50:46.493Z,99593.47
2018-12-16T19:53:51.092Z,99585.52
2018-12-16T19:56:55.705Z,99589.30
2018-12-16T20:00:00.387Z,99599.22
2018-12-16T20:03:05.083Z,99593.77
2018-12-16T20:06:15.023Z,99602.14
2018-12-16T20:09:19.732Z,99604.91
2018-12-16T20:12:24.313Z,99608.38
2018-12-16T20:15:29.033Z,99613.05
2018-12-16T20:18:33.689Z,99608.64
2018-12-16T20:21:38.724Z,99617.72
2018-12-16T20:24:43.310Z,99613.11
2018-12-16T20:27:47.881Z,99623.39
2018-12-16T20:30:53.150Z,99620.29
2018-12-16T20:33:57.837Z,99618.77
2018-12-16T20:37:02.499Z,99629.45
2018-12-16T20:40:08.340Z,99632.86
2018-12-16T20:43:12.985Z,99637.34
2018-12-16T20:46:17.642Z,99631.24
2018-12-16T20:49:22.313Z,99635.27
2018-12-16T20:52:26.891Z,99636.79
2018-12-16T20:55:31.510Z,99643.59
2018-12-16T20:58:36.181Z,99643.09
2018-12-16T21:01:40.829Z,99647.58
2018-12-16T21:04:45.443Z,99646.96
2018-12-16T21:07:50.009Z,99641.02
2018-12-16T21:10:54.572Z,99646.18
2018-12-16T21:14:04.497Z,99651.61
2018-12-16T21:17:14.488Z,99648.27
2018-12-16T21:20:19.163Z,99635.52
2018-12-16T21:23:24.227Z,99636.36
2018-12-16T21:26:28.894Z,99634.27
2018-12-16T21:29:33.542Z,99629.83
2018-12-16T21:32:38.077Z,99635.66
2018-12-16T21:35:42.727Z,99637.16
2018-12-16T21:38:47.208Z,99638.93
2018-12-16T21:41:51.825Z,99642.72
2018-12-16T21:44:56.448Z,99647.90
2018-12-16T21:48:01.014Z,99650.66
2018-12-16T21:51:05.797Z,99662.34
2018-12-16T21:54:10.352Z,99662.94
2018-12-16T21:57:14.969Z,99669.95
2018-12-16T22:00:19.561Z,99668.35
2018-12-16T22:03:24.170Z,99665.37
2018-12-16T22:06:28.797Z,99668.42
2018-12-16T22:09:33.314Z,99673.22
2018-12-16T22:12:37.993Z,99678.40
2018-12-16T22:15:42.579Z,99677.95
2018-12-16T22:18:47.272Z,99684.22
2018-12-16T22:21:51.873Z,99683.99
2018-12-16T22:24:56.476Z,99680.55
2018-12-16T22:28:01.114Z,99683.56
2018-12-16T22:31:05.670Z,99689.88
2018-12-16T22:34:10.317Z,99684.89
2018-12-16T22:37:15.110Z,99685.72
2018-12-16T22:40:19.883Z,99684.70
2018-12-16T22:43:24.440Z,99692.34
2018-12-16T22:46:29.434Z,99689.20
2018-12-16T22:49:34.199Z,99694.36
2018-12-16T22:52:38.862Z,99684.58
2018-12-16T22:55:43.479Z,99684.70
2018-12-16T22:58:54.201Z,99685.39
2018-12-16T23:01:54.706Z,99678.33
2018-12-16T23:04:59.294Z,99682.63
2018-12-16T23:08:03.976Z,99681.56
2018-12-16T23:11:08.520Z,99686.86
2018-12-16T23:14:13.196Z,99686.86
2018-12-16T23:17:17.791Z,99686.67
2018-12-16T23:20:24.468Z,99689.18
2018-12-16T23:23:29.085Z,99698.29
2018-12-16T23:26:33.665Z,99698.09
2018-12-16T23:29:38.163Z,99703.45
2018-12-16T23:32:42.669Z,99700.92
2018-12-16T23:35:47.260Z,99707.08
2018-12-16T23:38:51.802Z,99698.80
2018-12-16T23:41:56.337Z,99696.84
2018-12-16T23:45:00.840Z,99702.51
2018-12-16T23:48:05.397Z,99702.51
2018-12-16T23:51:10.103Z,99709.14
2018-12-16T23:54:14.616Z,99708.83
2018-12-16T23:57:19.088Z,99707.95
